Time,TemperatureF,DewpointF,PressureIn,WindDirection,WindDirectionDegrees,WindSpeedMPH,WindSpeedGustMPH,Humidity,HourlyPrecipIn,Conditions,Clouds,dailyrainin,SoftwareType,DateUTC
2013-08-09 00:00:00,60.5,57.6,29.95,SW,228,4.0,6.0,90,0.00,,,0.00,VWS V15.00,2013-08-09 05:00:00,
2013-08-09 00:02:00,59.9,57.3,29.95,SW,228,4.0,6.0,91,0.00,,BKN120,0.00,VWS V14.01,2013-08-09 05:02:00,
2013-08-09 00:07:00,59.8,57.5,29.95,SW,228,5.0,5.0,92,0.00,,BKN120,0.00,VWS V14.01,2013-08-09 05:07:00,
2013-08-09 00:12:00,59.8,57.5,29.95,SW,228,5.0,6.0,92,0.00,,BKN120,0.00,VWS V14.01,2013-08-09 05:12:00,
2013-08-09 00:15:00,60.2,57.3,29.95,SW,228,4.0,5.0,90,0.00,,,0.00,VWS V15.00,2013-08-09 05:15:00,
2013-08-09 00:17:00,59.8,57.5,29.95,SW,228,4.0,6.0,92,0.00,,BKN120,0.00,VWS V14.01,2013-08-09 05:17:00,
2013-08-09 00:22:00,59.8,57.5,29.95,SW,228,6.0,6.0,92,0.00,,BKN120,0.00,VWS V14.01,2013-08-09 05:22:00,
2013-08-09 00:27:00,59.6,57.3,29.95,SW,228,5.0,6.0,92,0.00,,BKN120,0.00,VWS V14.01,2013-08-09 05:27:00,
2013-08-09 00:30:00,60.2,57.6,29.95,SW,228,5.0,6.0,91,0.00,,,0.00,VWS V15.00,2013-08-09 05:30:00,
2013-08-09 00:32:00,59.6,57.3,29.95,SW,228,5.0,6.0,92,0.00,,BKN120,0.00,VWS V14.01,2013-08-09 05:32:00,
2013-08-09 00:37:00,59.6,57.3,29.95,SW,228,4.0,6.0,92,0.00,,BKN120,0.00,VWS V14.01,2013-08-09 05:37:00,
2013-08-09 00:42:00,59.6,57.3,29.95,SW,228,5.0,6.0,92,0.00,,BKN120,0.00,VWS V14.01,2013-08-09 05:42:00,
2013-08-09 00:45:00,60.1,57.5,29.95,SW,229,5.0,6.0,91,0.00,,,0.00,VWS V15.00,2013-08-09 05:45:00,
2013-08-09 00:47:00,59.6,57.3,29.95,SW,228,6.0,6.0,92,0.00,,BKN120,0.00,VWS V14.01,2013-08-09 05:47:00,
2013-08-09 00:53:00,59.5,57.2,29.95,SW,229,6.0,6.0,92,0.00,,BKN120,0.00,VWS V14.01,2013-08-09 05:53:00,
2013-08-09 00:58:00,59.5,57.5,29.95,SW,228,5.0,6.0,93,0.00,,BKN120,0.00,VWS V14.01,2013-08-09 05:58:00,
2013-08-09 01:00:00,59.9,57.3,29.95,SW,228,5.0,6.0,91,0.00,,,0.00,VWS V15.00,2013-08-09 06:00:00,
2013-08-09 01:03:00,59.3,57.3,29.95,SW,228,5.0,6.0,93,0.00,,BKN120,0.00,VWS V14.01,2013-08-09 06:03:00,
2013-08-09 01:08:00,59.3,57.3,29.95,SW,228,3.0,5.0,93,0.00,,BKN120,0.00,VWS V14.01,2013-08-09 06:08:00,
2013-08-09 01:13:00,59.2,57.2,29.95,SW,228,4.0,5.0,93,0.00,,BKN120,0.00,VWS V14.01,2013-08-09 06:13:00,
2013-08-09 01:15:00,59.8,57.5,29.95,SW,228,5.0,6.0,92,0.00,,,0.00,VWS V15.00,2013-08-09 06:15:00,
2013-08-09 01:18:00,59.0,57.0,29.95,SW,228,4.0,5.0,93,0.00,,BKN120,0.00,VWS V14.01,2013-08-09 06:18:00,
2013-08-09 01:23:00,59.0,57.3,29.95,SW,228,4.0,7.0,94,0.00,,BKN120,0.00,VWS V14.01,2013-08-09 06:23:00,
2013-08-09 01:28:00,59.0,57.3,29.95,SW,228,5.0,7.0,94,0.00,,BKN120,0.00,VWS V14.01,2013-08-09 06:28:00,
2013-08-09 01:30:00,59.6,57.3,29.95,SW,228,6.0,6.0,92,0.00,,,0.00,VWS V15.00,2013-08-09 06:30:00,
2013-08-09 01:33:00,58.9,57.2,29.95,SW,228,5.0,7.0,94,0.00,,BKN120,0.00,VWS V14.01,2013-08-09 06:33:00,
2013-08-09 01:38:00,58.7,57.0,29.95,SW,228,3.0,6.0,94,0.00,,BKN120,0.00,VWS V14.01,2013-08-09 06:38:00,
2013-08-09 01:43:00,58.7,57.0,29.95,SW,229,3.0,6.0,94,0.00,,BKN120,0.00,VWS V14.01,2013-08-09 06:43:00,
2013-08-09 01:45:00,59.6,57.3,29.95,SW,228,5.0,6.0,92,0.00,,,0.00,VWS V15.00,2013-08-09 06:45:00,
2013-08-09 01:48:00,58.7,57.3,29.95,SW,228,3.0,6.0,95,0.00,,BKN120,0.00,VWS V14.01,2013-08-09 06:48:00,
2013-08-09 01:53:00,58.7,57.3,29.95,SW,228,2.0,4.0,95,0.00,,BKN120,0.00,VWS V14.01,2013-08-09 06:53:00,
2013-08-09 01:58:00,58.6,57.2,29.95,SW,229,2.0,4.0,95,0.00,,BKN120,0.00,VWS V14.01,2013-08-09 06:58:00,
2013-08-09 02:00:00,59.3,57.3,29.95,SW,228,3.0,6.0,93,0.00,,,0.00,VWS V15.00,2013-08-09 07:00:00,
2013-08-09 02:03:00,58.6,57.2,29.95,SW,228,5.0,6.0,95,0.00,,BKN120,0.00,VWS V14.01,2013-08-09 07:03:00,
2013-08-09 02:08:00,58.6,57.2,29.95,SW,228,4.0,6.0,95,0.00,,BKN120,0.00,VWS V14.01,2013-08-09 07:08:00,
2013-08-09 02:13:00,58.6,57.2,29.95,SW,229,3.0,7.0,95,0.00,,BKN120,0.00,VWS V14.01,2013-08-09 07:13:00,
2013-08-09 02:15:00,59.0,57.0,29.95,SW,228,4.0,5.0,93,0.00,,,0.00,VWS V15.00,2013-08-09 07:15:00,
2013-08-09 02:18:00,58.6,57.5,29.95,SW,229,3.0,7.0,96,0.00,,BKN120,0.00,VWS V14.01,2013-08-09 07:18:00,
2013-08-09 02:23:00,58.4,57.0,29.95,SW,229,3.0,4.0,95,0.00,,BKN120,0.00,VWS V14.01,2013-08-09 07:23:00,
2013-08-09 02:28:00,58.3,57.2,29.95,SW,229,3.0,4.0,96,0.00,,BKN120,0.00,VWS V14.01,2013-08-09 07:28:00,
2013-08-09 02:30:00,58.9,57.2,29.95,SW,228,4.0,7.0,94,0.00,,,0.00,VWS V15.00,2013-08-09 07:30:00,
2013-08-09 02:34:00,58.1,57.0,29.95,SW,229,3.0,3.0,96,0.00,,BKN120,0.00,VWS V14.01,2013-08-09 07:34:00,
2013-08-09 02:39:00,58.1,57.0,29.95,SW,229,3.0,4.0,96,0.00,,BKN120,0.00,VWS V14.01,2013-08-09 07:39:00,
2013-08-09 02:44:00,58.1,57.0,29.95,SW,228,4.0,4.0,96,0.00,,,0.00,VWS V14.01,2013-08-09 07:44:00,
2013-08-09 02:45:00,58.7,57.3,29.95,SW,228,3.0,6.0,95,0.00,,,0.00,VWS V15.00,2013-08-09 07:45:00,
2013-08-09 02:49:00,58.0,56.9,29.96,SW,229,3.0,3.0,96,0.00,,,0.00,VWS V14.01,2013-08-09 07:49:00,
2013-08-09 02:54:00,58.0,56.9,29.96,SW,229,3.0,3.0,96,0.00,,,0.00,VWS V14.01,2013-08-09 07:54:00,
2013-08-09 02:59:00,58.0,56.9,29.96,SW,229,2.0,5.0,96,0.00,,,0.00,VWS V14.01,2013-08-09 07:59:00,
2013-08-09 03:00:00,58.6,57.2,29.95,SW,228,4.0,6.0,95,0.00,,,0.00,VWS V15.00,2013-08-09 08:00:00,
2013-08-09 03:04:00,58.0,57.2,29.95,SW,229,3.0,3.0,97,0.00,,,0.00,VWS V14.01,2013-08-09 08:04:00,
2013-08-09 03:09:00,58.1,57.3,29.95,SW,229,3.0,4.0,97,0.00,,,0.00,VWS V14.01,2013-08-09 08:09:00,
2013-08-09 03:14:00,58.1,57.3,29.95,SW,229,3.0,4.0,97,0.00,,,0.00,VWS V14.01,2013-08-09 08:14:00,
2013-08-09 03:15:00,58.6,57.5,29.95,SW,229,3.0,7.0,96,0.00,,,0.00,VWS V15.00,2013-08-09 08:15:00,
2013-08-09 03:19:00,58.0,57.2,29.96,SW,229,2.0,3.0,97,0.00,,,0.00,VWS V14.01,2013-08-09 08:19:00,
2013-08-09 03:24:00,58.0,57.2,29.96,SW,229,3.0,3.0,97,0.00,,,0.00,VWS V14.01,2013-08-09 08:24:00,
2013-08-09 03:29:00,57.8,57.0,29.96,SW,229,3.0,4.0,97,0.00,,,0.00,VWS V14.01,2013-08-09 08:29:00,
2013-08-09 03:30:00,58.1,57.0,29.95,SW,229,3.0,4.0,96,0.00,,,0.00,VWS V15.00,2013-08-09 08:30:00,
2013-08-09 03:34:00,57.6,56.8,29.96,SW,229,1.0,3.0,97,0.00,,,0.00,VWS V14.01,2013-08-09 08:34:00,
2013-08-09 03:39:00,57.5,56.7,29.96,SW,229,2.0,3.0,97,0.00,,,0.00,VWS V14.01,2013-08-09 08:39:00,
2013-08-09 03:44:00,57.3,56.5,29.96,SW,229,0.0,3.0,97,0.00,,BKN110,0.00,VWS V14.01,2013-08-09 08:44:00,
2013-08-09 03:45:00,58.0,56.9,29.96,SW,229,3.0,4.0,96,0.00,,,0.00,VWS V15.00,2013-08-09 08:45:00,
2013-08-09 03:49:00,57.3,56.5,29.96,SW,229,0.0,0.0,97,0.00,,BKN110,0.00,VWS V14.01,2013-08-09 08:49:00,
2013-08-09 03:54:00,57.2,56.4,29.96,SW,229,0.0,0.0,97,0.00,,BKN120,0.00,VWS V14.01,2013-08-09 08:54:00,
2013-08-09 03:59:00,56.9,56.1,29.96,SW,229,0.0,0.0,97,0.00,,BKN120,0.00,VWS V14.01,2013-08-09 08:59:00,
2013-08-09 04:00:00,58.0,57.2,29.95,SW,229,3.0,5.0,97,0.00,,,0.00,VWS V15.00,2013-08-09 09:00:00,
2013-08-09 04:04:00,56.3,55.5,29.97,SW,229,0.0,0.0,97,0.00,,BKN120,0.00,VWS V14.01,2013-08-09 09:04:00,
2013-08-09 04:09:00,56.0,55.2,29.97,SW,229,0.0,0.0,97,0.00,,BKN120,0.00,VWS V14.01,2013-08-09 09:09:00,
2013-08-09 04:14:00,55.7,54.9,29.97,SW,229,0.0,0.0,97,0.00,,BKN120,0.00,VWS V14.01,2013-08-09 09:14:00,
2013-08-09 04:15:00,58.0,57.2,29.96,SW,229,3.0,4.0,97,0.00,,,0.00,VWS V15.00,2013-08-09 09:15:00,
2013-08-09 04:19:00,55.6,54.8,29.97,SW,229,0.0,0.0,97,0.00,,BKN120,0.00,VWS V14.01,2013-08-09 09:19:00,
2013-08-09 04:24:00,55.4,54.6,29.97,SW,229,0.0,4.0,97,0.00,,BKN120,0.00,VWS V14.01,2013-08-09 09:24:00,
2013-08-09 04:29:00,55.4,54.8,29.97,SW,229,0.0,4.0,98,0.00,,BKN120,0.00,VWS V14.01,2013-08-09 09:29:00,
2013-08-09 04:30:00,57.6,56.8,29.96,SW,229,2.0,4.0,97,0.00,,,0.00,VWS V15.00,2013-08-09 09:30:00,
2013-08-09 04:34:00,55.4,54.8,29.97,SW,229,0.0,0.0,98,0.00,,BKN120,0.00,VWS V14.01,2013-08-09 09:34:00,
2013-08-09 04:39:00,55.3,54.8,29.97,SW,229,0.0,0.0,98,0.00,,BKN120,0.00,VWS V14.01,2013-08-09 09:39:00,
2013-08-09 04:44:00,55.1,54.3,29.97,SW,229,0.0,0.0,97,0.00,,BKN110,0.00,VWS V14.01,2013-08-09 09:44:00,
2013-08-09 04:45:00,57.3,56.5,29.96,SW,229,0.0,3.0,97,0.00,,,0.00,VWS V15.00,2013-08-09 09:45:00,
2013-08-09 04:50:00,55.0,54.5,29.97,SW,229,0.0,0.0,98,0.00,,BKN110,0.00,VWS V14.01,2013-08-09 09:50:00,
2013-08-09 04:55:00,54.8,54.2,29.97,SW,229,0.0,0.0,98,0.00,,SCT110,0.00,VWS V14.01,2013-08-09 09:55:00,
2013-08-09 05:00:00,54.8,54.2,29.97,SW,229,0.0,0.0,98,0.00,,SCT110,0.00,VWS V14.01,2013-08-09 10:00:00,
2013-08-09 05:05:00,54.8,54.2,29.97,SW,229,0.0,0.0,98,0.00,,SCT110,0.00,VWS V14.01,2013-08-09 10:05:00,
2013-08-09 05:10:00,54.5,54.0,29.97,SW,229,0.0,0.0,98,0.00,,SCT110,0.00,VWS V14.01,2013-08-09 10:10:00,
2013-08-09 05:15:00,54.1,53.3,29.97,SW,229,0.0,0.0,97,0.00,,SCT110,0.00,VWS V14.01,2013-08-09 10:15:00,
2013-08-09 05:20:00,53.8,53.0,29.97,SW,229,0.0,0.0,97,0.00,,SCT110,0.00,VWS V14.01,2013-08-09 10:20:00,
2013-08-09 05:25:00,53.8,53.2,29.97,SW,229,0.0,0.0,98,0.00,,SCT110,0.00,VWS V14.01,2013-08-09 10:25:00,
2013-08-09 05:30:00,53.8,53.2,29.97,SW,229,0.0,0.0,98,0.00,,SCT110,0.00,VWS V14.01,2013-08-09 10:30:00,
2013-08-09 05:35:00,53.5,53.0,29.97,SW,229,0.0,0.0,98,0.00,,SCT110,0.00,VWS V14.01,2013-08-09 10:35:00,
2013-08-09 05:40:00,53.2,52.7,29.97,SW,229,0.0,0.0,98,0.00,,,0.00,VWS V14.01,2013-08-09 10:40:00,
2013-08-09 05:45:00,53.1,52.5,29.97,SW,229,0.0,0.0,98,0.00,,,0.00,VWS V14.01,2013-08-09 10:45:00,
2013-08-09 05:50:00,53.1,52.5,29.97,SW,229,0.0,0.0,98,0.00,,,0.00,VWS V14.01,2013-08-09 10:50:00,
2013-08-09 05:55:00,52.9,52.3,29.97,SW,229,0.0,0.0,98,0.00,,,0.00,VWS V14.01,2013-08-09 10:55:00,
2013-08-09 06:00:00,52.2,51.4,29.97,SW,229,0.0,0.0,97,0.00,,,0.00,VWS V14.01,2013-08-09 11:00:00,
2013-08-09 06:05:00,52.0,51.5,29.97,SW,229,0.0,0.0,98,0.00,,,0.00,VWS V14.01,2013-08-09 11:05:00,
2013-08-09 06:10:00,52.0,51.5,29.97,SW,229,0.0,0.0,98,0.00,,,0.00,VWS V14.01,2013-08-09 11:10:00,
2013-08-09 06:15:00,52.0,51.5,29.97,SW,229,0.0,0.0,98,0.00,,,0.00,VWS V14.01,2013-08-09 11:15:00,
2013-08-09 06:21:00,52.0,51.5,29.98,SW,229,0.0,0.0,98,0.00,,,0.00,VWS V14.01,2013-08-09 11:21:00,
2013-08-09 06:26:00,52.3,52.0,29.98,SW,229,0.0,0.0,99,0.00,,,0.00,VWS V14.01,2013-08-09 11:26:00,
2013-08-09 06:30:00,53.6,53.0,29.97,SW,229,0.0,0.0,98,0.00,,,0.00,VWS V15.00,2013-08-09 11:30:00,
2013-08-09 06:31:00,52.5,52.2,29.98,SW,229,0.0,0.0,99,0.00,,,0.00,VWS V14.01,2013-08-09 11:31:00,
2013-08-09 06:36:00,52.6,52.3,29.99,SW,229,0.0,0.0,99,0.00,,,0.00,VWS V14.01,2013-08-09 11:36:00,
2013-08-09 06:41:00,52.0,51.5,29.99,SW,229,0.0,0.0,98,0.00,,,0.00,VWS V14.01,2013-08-09 11:41:00,
2013-08-09 06:45:00,53.1,52.5,29.97,SW,229,0.0,0.0,98,0.00,,,0.00,VWS V15.00,2013-08-09 11:45:00,
2013-08-09 06:46:00,51.3,50.5,29.99,SW,229,0.0,0.0,97,0.00,,,0.00,VWS V14.01,2013-08-09 11:46:00,
2013-08-09 06:51:00,51.1,50.6,29.99,SW,229,0.0,0.0,98,0.00,,,0.00,VWS V14.01,2013-08-09 11:51:00,
2013-08-09 06:56:00,51.6,51.3,29.99,SW,229,0.0,0.0,99,0.00,,,0.00,VWS V14.01,2013-08-09 11:56:00,
2013-08-09 07:00:00,52.0,51.5,29.97,SW,229,0.0,0.0,98,0.00,,,0.00,VWS V15.00,2013-08-09 12:00:00,
2013-08-09 07:01:00,51.9,51.6,29.99,SW,229,0.0,0.0,99,0.00,,,0.00,VWS V14.01,2013-08-09 12:01:00,
2013-08-09 07:06:00,52.0,51.7,30.00,SW,229,0.0,0.0,99,0.00,,,0.00,VWS V14.01,2013-08-09 12:06:00,
2013-08-09 07:11:00,52.3,52.0,30.00,SW,229,0.0,0.0,99,0.00,,,0.00,VWS V14.01,2013-08-09 12:11:00,
2013-08-09 07:15:00,52.0,51.5,29.98,SW,229,0.0,0.0,98,0.00,,,0.00,VWS V15.00,2013-08-09 12:15:00,
2013-08-09 07:16:00,52.6,52.3,30.00,SW,229,0.0,0.0,99,0.00,,,0.00,VWS V14.01,2013-08-09 12:16:00,
2013-08-09 07:21:00,52.6,52.3,30.00,SW,229,0.0,0.0,99,0.00,,,0.00,VWS V14.01,2013-08-09 12:21:00,
2013-08-09 07:27:00,53.1,52.8,30.00,SW,229,0.0,0.0,99,0.00,,,0.00,VWS V14.01,2013-08-09 12:27:00,
2013-08-09 07:30:00,52.6,52.3,29.99,SW,229,0.0,0.0,99,0.00,,,0.00,VWS V15.00,2013-08-09 12:30:00,
2013-08-09 07:32:00,53.6,53.3,30.00,SW,229,0.0,0.0,99,0.00,,,0.00,VWS V14.01,2013-08-09 12:32:00,
2013-08-09 07:37:00,54.1,53.8,30.00,SW,229,0.0,0.0,99,0.00,,,0.00,VWS V14.01,2013-08-09 12:37:00,
2013-08-09 07:42:00,54.5,54.2,30.00,SW,229,0.0,0.0,99,0.00,,,0.00,VWS V14.01,2013-08-09 12:42:00,
2013-08-09 07:45:00,51.1,50.6,29.99,SW,229,0.0,0.0,98,0.00,,,0.00,VWS V15.00,2013-08-09 12:45:00,
2013-08-09 07:47:00,54.8,54.5,30.00,SW,229,0.0,0.0,99,0.00,,,0.00,VWS V14.01,2013-08-09 12:47:00,
2013-08-09 07:52:00,55.3,55.3,29.99,SW,229,0.0,0.0,100,0.00,,,0.00,VWS V14.01,2013-08-09 12:52:00,
2013-08-09 07:57:00,55.9,55.9,29.99,SW,229,0.0,0.0,100,0.00,,,0.00,VWS V14.01,2013-08-09 12:57:00,
2013-08-09 08:00:00,52.0,51.7,30.00,SW,229,0.0,0.0,99,0.00,,,0.00,VWS V15.00,2013-08-09 13:00:00,
2013-08-09 08:02:00,56.2,56.2,29.99,SW,229,0.0,0.0,100,0.00,,CLR,0.00,VWS V14.01,2013-08-09 13:02:00,
2013-08-09 08:07:00,56.5,56.5,29.99,SW,229,0.0,3.0,100,0.00,,CLR,0.00,VWS V14.01,2013-08-09 13:07:00,
2013-08-09 08:12:00,56.5,56.5,29.99,SW,229,0.0,3.0,100,0.00,,CLR,0.00,VWS V14.01,2013-08-09 13:12:00,
2013-08-09 08:15:00,52.6,52.3,30.00,SW,229,0.0,0.0,99,0.00,,,0.00,VWS V15.00,2013-08-09 13:15:00,
2013-08-09 08:17:00,56.6,56.6,29.99,SW,229,0.0,4.0,100,0.00,,CLR,0.00,VWS V14.01,2013-08-09 13:17:00,
2013-08-09 08:22:00,56.7,56.7,30.01,SW,229,0.0,0.0,100,0.00,,CLR,0.00,VWS V14.01,2013-08-09 13:22:00,
2013-08-09 08:27:00,57.0,57.0,30.01,SW,229,0.0,0.0,100,0.00,,CLR,0.00,VWS V14.01,2013-08-09 13:27:00,
2013-08-09 08:30:00,53.8,53.5,30.00,SW,229,0.0,0.0,99,0.00,,,0.00,VWS V15.00,2013-08-09 13:30:00,
2013-08-09 08:32:00,57.2,57.2,30.01,SW,229,0.0,0.0,100,0.00,,CLR,0.00,VWS V14.01,2013-08-09 13:32:00,
2013-08-09 08:37:00,57.5,57.2,30.01,SW,229,0.0,0.0,99,0.00,,CLR,0.00,VWS V14.01,2013-08-09 13:37:00,
2013-08-09 08:42:00,57.8,57.5,30.01,SW,229,0.0,0.0,99,0.00,,CLR,0.00,VWS V14.01,2013-08-09 13:42:00,
2013-08-09 08:45:00,55.0,54.7,29.99,SW,229,0.0,0.0,99,0.00,,,0.00,VWS V15.00,2013-08-09 13:45:00,
2013-08-09 08:47:00,58.0,57.7,30.01,SW,229,0.0,0.0,99,0.00,,CLR,0.00,VWS V14.01,2013-08-09 13:47:00,
2013-08-09 08:52:00,58.4,58.1,30.01,SW,229,0.0,0.0,99,0.00,,CLR,0.00,VWS V14.01,2013-08-09 13:52:00,
2013-08-09 08:57:00,58.7,58.4,30.01,SW,229,0.0,0.0,99,0.00,,CLR,0.00,VWS V14.01,2013-08-09 13:57:00,
2013-08-09 09:00:00,56.3,56.3,29.99,SW,229,2.0,2.0,100,0.00,,,0.00,VWS V15.00,2013-08-09 14:00:00,
2013-08-09 09:02:00,59.0,58.4,30.01,SW,229,0.0,0.0,98,0.00,,CLR,0.00,VWS V14.01,2013-08-09 14:02:00,
2013-08-09 09:07:00,59.3,58.7,30.01,SW,229,4.0,4.0,98,0.00,,CLR,0.00,VWS V14.01,2013-08-09 14:07:00,
2013-08-09 09:12:00,59.8,58.7,30.01,SW,229,3.0,4.0,96,0.00,,CLR,0.00,VWS V14.01,2013-08-09 14:12:00,
2013-08-09 09:15:00,56.7,56.7,30.01,SW,229,0.0,4.0,100,0.00,,,0.00,VWS V15.00,2013-08-09 14:15:00,
2013-08-09 09:17:00,60.5,58.8,30.01,SW,229,3.0,4.0,94,0.00,,CLR,0.00,VWS V14.01,2013-08-09 14:17:00,
2013-08-09 09:22:00,61.2,58.9,30.01,SW,229,2.0,3.0,92,0.00,,CLR,0.00,VWS V14.01,2013-08-09 14:22:00,
2013-08-09 09:27:00,61.8,59.2,30.01,SW,229,2.0,4.0,91,0.00,,CLR,0.00,VWS V14.01,2013-08-09 14:27:00,
2013-08-09 09:30:00,57.3,57.3,30.01,SW,229,0.0,0.0,100,0.00,,,0.00,VWS V15.00,2013-08-09 14:30:00,
2013-08-09 09:32:00,62.1,58.2,30.01,SW,229,2.0,5.0,87,0.00,,CLR,0.00,VWS V14.01,2013-08-09 14:32:00,
2013-08-09 09:37:00,62.6,57.0,30.01,SW,233,5.0,8.0,82,0.00,,CLR,0.00,VWS V14.01,2013-08-09 14:37:00,
2013-08-09 09:42:00,63.5,57.2,30.01,WNW,291,5.0,9.0,80,0.00,,CLR,0.00,VWS V14.01,2013-08-09 14:42:00,
2013-08-09 09:45:00,58.1,57.8,30.01,SW,229,0.0,0.0,99,0.00,,OVC016,0.00,VWS V15.00,2013-08-09 14:45:00,
2013-08-09 09:48:00,64.0,55.6,30.01,WNW,291,0.0,9.0,74,0.00,,CLR,0.00,VWS V14.01,2013-08-09 14:48:00,
2013-08-09 09:53:00,64.8,55.6,30.01,WNW,293,6.0,9.0,72,0.00,,CLR,0.00,VWS V14.01,2013-08-09 14:53:00,
2013-08-09 09:58:00,65.5,56.2,30.01,WNW,293,1.0,9.0,72,0.00,,CLR,0.00,VWS V14.01,2013-08-09 14:58:00,
2013-08-09 10:00:00,59.0,58.4,30.01,SW,229,0.0,0.0,98,0.00,,,0.00,VWS V15.00,2013-08-09 15:00:00,
2013-08-09 10:03:00,66.0,55.5,30.01,WNW,293,2.0,9.0,69,0.00,,CLR,0.00,VWS V14.01,2013-08-09 15:03:00,
2013-08-09 10:08:00,66.8,55.1,30.01,West,270,0.0,10.0,66,0.00,,CLR,0.00,VWS V14.01,2013-08-09 15:08:00,
2013-08-09 10:13:00,67.6,58.3,30.01,West,267,6.0,10.0,72,0.00,,CLR,0.00,VWS V14.01,2013-08-09 15:13:00,
2013-08-09 10:15:00,60.7,59.0,30.01,SW,229,3.0,4.0,94,0.00,,,0.00,VWS V15.00,2013-08-09 15:15:00,
2013-08-09 10:18:00,67.8,55.2,30.01,WNW,291,4.0,10.0,64,0.00,,CLR,0.00,VWS V14.01,2013-08-09 15:18:00,
2013-08-09 10:23:00,67.3,54.7,30.01,West,280,4.0,9.0,64,0.00,,CLR,0.00,VWS V14.01,2013-08-09 15:23:00,
2013-08-09 10:28:00,67.1,54.5,30.01,NW,321,6.0,11.0,64,0.00,,CLR,0.00,VWS V14.01,2013-08-09 15:28:00,
2013-08-09 10:30:00,62.3,58.4,30.01,SW,229,5.0,5.0,87,0.00,,,0.00,VWS V15.00,2013-08-09 15:30:00,
2013-08-09 10:33:00,67.4,52.1,30.02,WNW,297,5.0,15.0,58,0.00,,CLR,0.00,VWS V14.01,2013-08-09 15:33:00,
2013-08-09 10:38:00,68.1,52.8,30.02,NW,324,7.0,13.0,58,0.00,,CLR,0.00,VWS V14.01,2013-08-09 15:38:00,
2013-08-09 10:43:00,68.8,52.5,30.02,WNW,302,5.0,13.0,56,0.00,,SCT050,0.00,VWS V14.01,2013-08-09 15:43:00,
2013-08-09 10:45:00,64.2,56.1,30.01,WNW,291,0.0,9.0,75,0.00,,,0.00,VWS V15.00,2013-08-09 15:45:00,
2013-08-09 10:48:00,68.9,53.1,30.02,WNW,291,14.0,15.0,57,0.00,,SCT050,0.00,VWS V14.01,2013-08-09 15:48:00,
2013-08-09 10:53:00,69.1,52.8,30.02,NW,309,6.0,13.0,56,0.00,,SCT070,0.00,VWS V14.01,2013-08-09 15:53:00,
2013-08-09 10:58:00,68.9,53.1,30.02,NW,306,8.0,15.0,57,0.00,,SCT070,0.00,VWS V14.01,2013-08-09 15:58:00,
2013-08-09 11:00:00,66.1,56.0,30.01,WNW,293,0.0,9.0,70,0.00,,,0.00,VWS V15.00,2013-08-09 16:00:00,
2013-08-09 11:03:00,68.1,53.7,30.02,West,279,9.0,15.0,60,0.00,,SCT070,0.00,VWS V14.01,2013-08-09 16:03:00,
2013-08-09 11:08:00,67.9,53.5,30.02,WNW,291,9.0,10.0,60,0.00,,SCT070,0.00,VWS V14.01,2013-08-09 16:08:00,
2013-08-09 11:13:00,68.1,54.2,30.02,WNW,300,3.0,12.0,61,0.00,,SCT070,0.00,VWS V14.01,2013-08-09 16:13:00,
2013-08-09 11:15:00,67.8,55.2,30.01,West,281,9.0,10.0,64,0.00,,,0.00,VWS V15.00,2013-08-09 16:15:00,
2013-08-09 11:18:00,68.9,53.5,30.02,West,277,4.0,17.0,58,0.00,,SCT070,0.00,VWS V14.01,2013-08-09 16:18:00,
2013-08-09 11:23:00,69.6,53.7,30.02,WNW,292,11.0,13.0,57,0.00,,SCT070,0.00,VWS V14.01,2013-08-09 16:23:00,
2013-08-09 11:28:00,70.4,55.9,30.02,WNW,292,15.0,15.0,60,0.00,,SCT070,0.00,VWS V14.01,2013-08-09 16:28:00,
2013-08-09 11:30:00,67.4,52.6,30.02,WNW,303,10.0,15.0,59,0.00,,,0.00,VWS V15.00,2013-08-09 16:30:00,
2013-08-09 11:33:00,70.1,53.2,30.01,WNW,298,10.0,17.0,55,0.00,,SCT070,0.00,VWS V14.01,2013-08-09 16:33:00,
2013-08-09 11:38:00,69.3,53.9,30.01,WNW,283,4.0,16.0,58,0.00,,SCT070,0.00,VWS V14.01,2013-08-09 16:38:00,
2013-08-09 11:43:00,68.6,53.7,30.01,WNW,292,11.0,17.0,59,0.00,,BKN049,0.00,VWS V14.01,2013-08-09 16:43:00,
2013-08-09 11:45:00,68.8,53.0,30.02,WNW,291,7.0,15.0,57,0.00,,,0.00,VWS V15.00,2013-08-09 16:45:00,
2013-08-09 11:48:00,69.4,52.5,30.01,WNW,286,14.0,20.0,55,0.00,,BKN049,0.00,VWS V14.01,2013-08-09 16:48:00,
2013-08-09 11:53:00,70.1,52.7,30.01,NW,311,17.0,18.0,54,0.00,,SCT048,0.00,VWS V14.01,2013-08-09 16:53:00,
2013-08-09 11:58:00,69.9,54.5,30.01,WNW,295,7.0,18.0,58,0.00,,SCT048,0.00,VWS V14.01,2013-08-09 16:58:00,
2013-08-09 12:00:00,68.1,53.7,30.02,WNW,288,9.0,15.0,60,0.00,,,0.00,VWS V15.00,2013-08-09 17:00:00,
2013-08-09 12:04:00,69.8,53.4,30.01,WNW,293,8.0,8.0,56,0.00,,SCT048,0.00,VWS V14.01,2013-08-09 17:04:00,
2013-08-09 12:09:00,69.9,52.0,30.01,NW,321,9.0,17.0,53,0.00,,SCT048,0.00,VWS V14.01,2013-08-09 17:09:00,
2013-08-09 12:14:00,70.9,53.4,30.01,NW,319,14.0,17.0,54,0.00,,SCT048,0.00,VWS V14.01,2013-08-09 17:14:00,
2013-08-09 12:15:00,71.3,54.3,30.01,WNW,303,16.0,19.0,55,0.00,,SCT048,0.00,VWS V14.01,2013-08-09 17:15:00,
2013-08-09 12:20:00,71.1,52.6,30.00,NW,315,7.0,15.0,52,0.00,,SCT048,0.00,VWS V14.01,2013-08-09 17:20:00,
2013-08-09 12:25:00,71.1,51.0,30.00,WNW,294,10.0,17.0,49,0.00,,SCT048,0.00,VWS V14.01,2013-08-09 17:25:00,
2013-08-09 12:30:00,71.5,52.4,30.00,NNW,333,11.0,17.0,51,0.00,,SCT048,0.00,VWS V14.01,2013-08-09 17:30:00,
2013-08-09 12:35:00,71.1,52.1,30.00,NW,324,15.0,19.0,51,0.00,,SCT048,0.00,VWS V14.01,2013-08-09 17:35:00,
2013-08-09 12:40:00,71.6,52.5,30.00,NW,306,12.0,19.0,51,0.00,,SCT045,0.00,VWS V14.01,2013-08-09 17:40:00,
2013-08-09 12:45:00,72.1,51.3,30.00,NNW,329,13.0,19.0,48,0.00,,SCT045,0.00,VWS V14.01,2013-08-09 17:45:00,
2013-08-09 12:50:00,72.8,53.1,30.00,WNW,300,9.0,17.0,50,0.00,,SCT049,0.00,VWS V14.01,2013-08-09 17:50:00,
2013-08-09 12:55:00,73.3,53.6,30.00,WNW,296,4.0,17.0,50,0.00,,SCT049,0.00,VWS V14.01,2013-08-09 17:55:00,
2013-08-09 13:00:00,73.5,51.5,30.00,NW,319,17.0,18.0,46,0.00,,SCT049,0.00,VWS V14.01,2013-08-09 18:00:00,
2013-08-09 13:05:00,73.2,50.6,30.00,WNW,285,4.0,12.0,45,0.00,,SCT049,0.00,VWS V14.01,2013-08-09 18:05:00,
2013-08-09 13:10:00,73.2,51.2,30.00,NW,322,3.0,17.0,46,0.00,,SCT049,0.00,VWS V14.01,2013-08-09 18:10:00,
2013-08-09 13:15:00,73.5,52.1,30.00,WNW,293,8.0,17.0,47,0.00,,SCT049,0.00,VWS V14.01,2013-08-09 18:15:00,
2013-08-09 13:20:00,73.2,52.4,30.00,NW,307,10.0,14.0,48,0.00,,SCT049,0.00,VWS V14.01,2013-08-09 18:20:00,
2013-08-09 13:25:00,73.7,52.2,30.00,NNW,336,4.0,15.0,47,0.00,,SCT049,0.00,VWS V14.01,2013-08-09 18:25:00,
2013-08-09 13:30:00,73.3,51.3,30.00,NW,323,10.0,21.0,46,0.00,,SCT049,0.00,VWS V14.01,2013-08-09 18:30:00,
2013-08-09 13:35:00,73.5,50.9,30.00,NNW,348,11.0,16.0,45,0.00,,SCT049,0.00,VWS V14.01,2013-08-09 18:35:00,
2013-08-09 13:40:00,73.7,50.5,30.00,WNW,292,21.0,21.0,44,0.00,,SCT049,0.00,VWS V14.01,2013-08-09 18:40:00,
2013-08-09 13:45:00,73.7,49.8,30.00,WNW,291,12.0,21.0,43,0.00,,SCT049,0.00,VWS V14.01,2013-08-09 18:45:00,
2013-08-09 13:50:00,73.7,50.5,30.00,North,1,10.0,19.0,44,0.00,,SCT050,0.00,VWS V14.01,2013-08-09 18:50:00,
2013-08-09 13:55:00,74.0,51.3,30.00,North,350,6.0,19.0,45,0.00,,SCT050,0.00,VWS V14.01,2013-08-09 18:55:00,
2013-08-09 14:00:00,74.9,50.9,30.00,WNW,295,13.0,22.0,43,0.00,,SCT050,0.00,VWS V14.01,2013-08-09 19:00:00,
2013-08-09 14:06:00,75.3,50.0,30.00,NNW,343,9.0,16.0,41,0.00,,SCT050,0.00,VWS V14.01,2013-08-09 19:06:00,
2013-08-09 14:11:00,74.6,49.4,30.00,WNW,302,10.0,16.0,41,0.00,,SCT050,0.00,VWS V14.01,2013-08-09 19:11:00,
2013-08-09 14:15:00,73.2,50.6,30.00,NW,309,4.0,17.0,45,0.00,,,0.00,VWS V15.00,2013-08-09 19:15:00,
2013-08-09 14:16:00,74.0,50.7,30.00,WNW,293,15.0,16.0,44,0.00,,SCT050,0.00,VWS V14.01,2013-08-09 19:16:00,
2013-08-09 14:22:00,74.2,50.9,30.00,NW,310,11.0,17.0,44,0.00,,SCT050,0.00,VWS V14.01,2013-08-09 19:22:00,
2013-08-09 14:27:00,74.2,50.9,30.00,WNW,284,14.0,17.0,44,0.00,,SCT050,0.00,VWS V14.01,2013-08-09 19:27:00,
2013-08-09 14:30:00,73.5,50.3,30.00,NNW,334,16.0,21.0,44,0.00,,,0.00,VWS V15.00,2013-08-09 19:30:00,
2013-08-09 14:32:00,74.6,51.9,30.00,North,2,5.0,17.0,45,0.00,,SCT050,0.00,VWS V14.01,2013-08-09 19:32:00,
2013-08-09 14:37:00,75.1,53.5,30.00,NNW,338,15.0,16.0,47,0.00,,SCT050,0.00,VWS V14.01,2013-08-09 19:37:00,
2013-08-09 14:42:00,74.0,51.9,30.00,NW,319,9.0,20.0,46,0.00,,BKN050,0.00,VWS V14.01,2013-08-09 19:42:00,
2013-08-09 14:45:00,73.7,49.8,30.00,NW,307,12.0,21.0,43,0.00,,,0.00,VWS V15.00,2013-08-09 19:45:00,
2013-08-09 14:47:00,74.4,51.1,30.00,WNW,292,7.0,20.0,44,0.00,,BKN050,0.00,VWS V14.01,2013-08-09 19:47:00,
2013-08-09 14:52:00,74.9,51.5,30.00,NNW,329,3.0,11.0,44,0.00,,OVC060,0.00,VWS V14.01,2013-08-09 19:52:00,
2013-08-09 14:57:00,75.3,52.5,30.00,NW,316,6.0,13.0,45,0.00,,OVC060,0.00,VWS V14.01,2013-08-09 19:57:00,
2013-08-09 15:00:00,75.3,50.0,30.00,NW,324,8.0,22.0,41,0.00,,,0.00,VWS V15.00,2013-08-09 20:00:00,
2013-08-09 15:02:00,74.2,49.7,30.00,NNW,336,9.0,15.0,42,0.00,,OVC060,0.00,VWS V14.01,2013-08-09 20:02:00,
2013-08-09 15:07:00,73.2,50.6,30.00,NW,324,5.0,14.0,45,0.00,,OVC060,0.00,VWS V14.01,2013-08-09 20:07:00,
2013-08-09 15:12:00,72.8,53.1,30.00,NW,325,9.0,14.0,50,0.00,,OVC060,0.00,VWS V14.01,2013-08-09 20:12:00,
2013-08-09 15:15:00,74.0,49.5,30.00,West,279,5.0,19.0,42,0.00,,,0.00,VWS V15.00,2013-08-09 20:15:00,
2013-08-09 15:17:00,72.0,51.3,30.00,NW,314,5.0,15.0,48,0.00,,OVC060,0.00,VWS V14.01,2013-08-09 20:17:00,
2013-08-09 15:22:00,71.3,51.7,30.00,NNW,331,4.0,15.0,50,0.00,,OVC060,0.00,VWS V14.01,2013-08-09 20:22:00,
2013-08-09 15:27:00,71.1,51.5,30.00,North,357,8.0,15.0,50,0.00,,OVC060,0.00,VWS V14.01,2013-08-09 20:27:00,
2013-08-09 15:30:00,74.9,51.5,30.00,NNW,341,7.0,17.0,44,0.00,,,0.00,VWS V15.00,2013-08-09 20:30:00,
2013-08-09 15:32:00,71.1,54.6,30.00,NW,324,5.0,15.0,56,0.00,,OVC060,0.00,VWS V14.01,2013-08-09 20:32:00,
2013-08-09 15:37:00,72.1,53.0,30.00,NW,308,6.0,16.0,51,0.00,,OVC060,0.00,VWS V14.01,2013-08-09 20:37:00,
2013-08-09 15:42:00,72.3,53.7,30.00,NW,307,11.0,16.0,52,0.00,,OVC060,0.00,VWS V14.01,2013-08-09 20:42:00,
2013-08-09 15:45:00,74.6,50.0,30.00,WNW,293,6.0,20.0,42,0.00,,,0.00,VWS V15.00,2013-08-09 20:45:00,
2013-08-09 15:47:00,72.5,51.7,30.00,WNW,291,10.0,16.0,48,0.00,,OVC060,0.00,VWS V14.01,2013-08-09 20:47:00,
2013-08-09 15:52:00,72.8,52.0,30.00,WNW,292,3.0,11.0,48,0.00,,SCT055,0.00,VWS V14.01,2013-08-09 20:52:00,
2013-08-09 15:57:00,74.2,52.7,30.00,WNW,296,4.0,12.0,47,0.00,,SCT055,0.00,VWS V14.01,2013-08-09 20:57:00,
2013-08-09 16:00:00,73.9,50.6,30.00,NNW,329,11.0,17.0,44,0.00,,,0.00,VWS V15.00,2013-08-09 21:00:00,
2013-08-09 16:02:00,75.1,52.3,30.00,West,274,3.0,13.0,45,0.00,,SCT055,0.00,VWS V14.01,2013-08-09 21:02:00,
2013-08-09 16:07:00,74.7,52.6,30.00,WNW,291,2.0,14.0,46,0.00,,SCT055,0.00,VWS V14.01,2013-08-09 21:07:00,
2013-08-09 16:12:00,74.7,52.6,30.00,NNW,333,7.0,14.0,46,0.00,,SCT055,0.00,VWS V14.01,2013-08-09 21:12:00,
2013-08-09 16:15:00,71.8,52.2,30.00,NW,326,4.0,15.0,50,0.00,,,0.00,VWS V15.00,2013-08-09 21:15:00,
2013-08-09 16:17:00,74.0,53.1,30.00,NW,323,11.0,14.0,48,0.00,,SCT055,0.00,VWS V14.01,2013-08-09 21:17:00,
2013-08-09 16:22:00,73.2,52.4,30.00,NW,315,6.0,11.0,48,0.00,,SCT055,0.00,VWS V14.01,2013-08-09 21:22:00,
2013-08-09 16:27:00,72.8,52.5,30.00,NNW,329,6.0,13.0,49,0.00,,SCT055,0.00,VWS V14.01,2013-08-09 21:27:00,
2013-08-09 16:30:00,71.5,54.0,30.00,NW,322,10.0,15.0,54,0.00,,,0.00,VWS V15.00,2013-08-09 21:30:00,
2013-08-09 16:33:00,72.8,53.1,30.00,NW,304,10.0,13.0,50,0.00,,SCT055,0.00,VWS V14.01,2013-08-09 21:33:00,
2013-08-09 16:38:00,72.7,53.0,30.01,NW,311,4.0,10.0,50,0.00,,SCT055,0.00,VWS V14.01,2013-08-09 21:38:00,
2013-08-09 16:43:00,72.5,52.8,30.01,NNW,335,14.0,16.0,50,0.00,,OVC065,0.00,VWS V14.01,2013-08-09 21:43:00,
2013-08-09 16:45:00,72.5,52.3,30.00,WNW,291,6.0,16.0,49,0.00,,,0.00,VWS V15.00,2013-08-09 21:45:00,
2013-08-09 16:48:00,72.7,51.9,30.01,NW,310,4.0,16.0,48,0.00,,OVC065,0.00,VWS V14.01,2013-08-09 21:48:00,
2013-08-09 16:53:00,72.8,51.4,30.01,NW,318,9.0,16.0,47,0.00,,OVC065,0.00,VWS V14.01,2013-08-09 21:53:00,
2013-08-09 16:58:00,72.1,50.8,30.01,WNW,303,6.0,16.0,47,0.00,,OVC065,0.00,VWS V14.01,2013-08-09 21:58:00,
2013-08-09 17:00:00,74.9,51.5,30.00,West,263,5.0,13.0,44,0.00,,,0.00,VWS V15.00,2013-08-09 22:00:00,
2013-08-09 17:03:00,71.6,53.1,30.01,NW,316,6.0,16.0,52,0.00,,OVC065,0.00,VWS V14.01,2013-08-09 22:03:00,
2013-08-09 17:08:00,71.3,51.7,30.01,NW,322,10.0,14.0,50,0.00,,OVC065,0.00,VWS V14.01,2013-08-09 22:08:00,
2013-08-09 17:13:00,70.9,51.9,30.01,NNW,333,12.0,15.0,51,0.00,,OVC065,0.00,VWS V14.01,2013-08-09 22:13:00,
2013-08-09 17:15:00,73.7,52.8,30.00,NNW,338,6.0,14.0,48,0.00,,,0.00,VWS V15.00,2013-08-09 22:15:00,
2013-08-09 17:18:00,70.6,53.7,30.02,NW,324,5.0,15.0,55,0.00,,OVC065,0.00,VWS V14.01,2013-08-09 22:18:00,
2013-08-09 17:23:00,70.6,55.1,30.02,NW,326,8.0,11.0,58,0.00,,OVC065,0.00,VWS V14.01,2013-08-09 22:23:00,
2013-08-09 17:28:00,70.3,53.4,30.02,NNW,336,3.0,11.0,55,0.00,,OVC065,0.00,VWS V14.01,2013-08-09 22:28:00,
2013-08-09 17:30:00,72.7,51.3,30.01,NW,320,4.0,13.0,47,0.00,,,0.00,VWS V15.00,2013-08-09 22:30:00,
2013-08-09 17:33:00,70.4,54.9,30.02,NNW,333,5.0,11.0,58,0.00,,OVC065,0.00,VWS V14.01,2013-08-09 22:33:00,
2013-08-09 17:38:00,70.1,52.7,30.02,NNW,327,9.0,11.0,54,0.00,,OVC065,0.00,VWS V14.01,2013-08-09 22:38:00,
2013-08-09 17:43:00,69.9,53.5,30.02,NNW,341,7.0,14.0,56,0.00,,OVC065,0.00,VWS V14.01,2013-08-09 22:43:00,
2013-08-09 17:45:00,72.7,53.5,30.01,WNW,286,5.0,16.0,51,0.00,,,0.00,VWS V15.00,2013-08-09 22:45:00,
2013-08-09 17:48:00,69.8,53.4,30.03,NNW,331,6.0,14.0,56,0.00,,OVC065,0.00,VWS V14.01,2013-08-09 22:48:00,
2013-08-09 17:53:00,69.4,52.0,30.03,NNW,330,10.0,15.0,54,0.00,,OVC065,0.00,VWS V14.01,2013-08-09 22:53:00,
2013-08-09 17:58:00,69.3,53.4,30.03,NNW,341,9.0,15.0,57,0.00,,OVC065,0.00,VWS V14.01,2013-08-09 22:58:00,
2013-08-09 18:00:00,71.6,53.1,30.01,NW,316,9.0,16.0,52,0.00,,,0.00,VWS V15.00,2013-08-09 23:00:00,
2013-08-09 18:03:00,68.9,53.1,30.03,NNW,338,6.0,15.0,57,0.00,,OVC065,0.00,VWS V14.01,2013-08-09 23:03:00,
2013-08-09 18:08:00,68.8,53.4,30.03,NNW,329,12.0,14.0,58,0.00,,OVC065,0.00,VWS V14.01,2013-08-09 23:08:00,
2013-08-09 18:13:00,68.8,53.0,30.03,NNW,329,4.0,14.0,57,0.00,,OVC065,0.00,VWS V14.01,2013-08-09 23:13:00,
2013-08-09 18:15:00,70.6,53.7,30.02,NW,323,7.0,15.0,55,0.00,,,0.00,VWS V15.00,2013-08-09 23:15:00,
2013-08-09 18:18:00,68.6,54.2,30.03,NNW,335,6.0,14.0,60,0.00,,OVC065,0.00,VWS V14.01,2013-08-09 23:18:00,
2013-08-09 18:23:00,68.3,54.8,30.03,NW,317,9.0,12.0,62,0.00,,OVC065,0.00,VWS V14.01,2013-08-09 23:23:00,
2013-08-09 18:28:00,67.9,54.4,30.03,NW,321,7.0,13.0,62,0.00,,OVC065,0.00,VWS V14.01,2013-08-09 23:28:00,
2013-08-09 18:30:00,70.3,53.9,30.02,NNW,329,7.0,11.0,56,0.00,,,0.00,VWS V15.00,2013-08-09 23:30:00,
2013-08-09 18:33:00,67.8,54.3,30.03,NNW,336,6.0,13.0,62,0.00,,OVC065,0.00,VWS V14.01,2013-08-09 23:33:00,
2013-08-09 18:38:00,67.6,54.1,30.03,NNW,332,7.0,13.0,62,0.00,,OVC065,0.00,VWS V14.01,2013-08-09 23:38:00,
2013-08-09 18:43:00,67.4,53.5,30.03,NNW,334,7.0,13.0,61,0.00,,OVC070,0.00,VWS V14.01,2013-08-09 23:43:00,
2013-08-09 18:45:00,69.8,53.4,30.03,NNW,331,4.0,14.0,56,0.00,,,0.00,VWS V15.00,2013-08-09 23:45:00,
2013-08-09 18:48:00,67.3,53.8,30.04,NNW,336,9.0,13.0,62,0.00,,OVC070,0.00,VWS V14.01,2013-08-09 23:48:00,
2013-08-09 18:54:00,67.3,53.4,30.04,NNW,327,0.0,9.0,61,0.00,,OVC070,0.00,VWS V14.01,2013-08-09 23:54:00,
2013-08-09 18:59:00,67.1,54.1,30.04,NNW,328,0.0,9.0,63,0.00,,OVC070,0.00,VWS V14.01,2013-08-09 23:59:00,
2013-08-09 19:00:00,68.9,53.5,30.03,NNW,338,7.0,15.0,58,0.00,,,0.00,VWS V15.00,2013-08-10 00:00:00,
2013-08-09 19:04:00,66.9,54.3,30.04,NW,326,3.0,3.0,64,0.00,,OVC070,0.00,VWS V14.01,2013-08-10 00:04:00,
2013-08-09 19:09:00,66.8,54.2,30.04,NW,317,0.0,7.0,64,0.00,,OVC070,0.00,VWS V14.01,2013-08-10 00:09:00,
2013-08-09 19:14:00,66.6,54.5,30.04,NW,319,4.0,7.0,65,0.00,,OVC070,0.00,VWS V14.01,2013-08-10 00:14:00,
2013-08-09 19:15:00,68.6,54.2,30.03,NW,317,11.0,14.0,60,0.00,,,0.00,VWS V15.00,2013-08-10 00:15:00,
2013-08-09 19:19:00,66.4,55.5,30.04,NW,320,1.0,2.0,68,0.00,,OVC070,0.00,VWS V14.01,2013-08-10 00:19:00,
2013-08-09 19:24:00,66.3,55.4,30.04,NW,323,0.0,6.0,68,0.00,,OVC070,0.00,VWS V14.01,2013-08-10 00:24:00,
2013-08-09 19:29:00,66.0,54.7,30.04,NNW,331,6.0,9.0,67,0.00,,OVC070,0.00,VWS V14.01,2013-08-10 00:29:00,
2013-08-09 19:30:00,67.8,54.3,30.03,NNW,336,6.0,13.0,62,0.00,,,0.00,VWS V15.00,2013-08-10 00:30:00,
2013-08-09 19:34:00,65.8,54.1,30.04,NNW,336,2.0,4.0,66,0.00,,OVC070,0.00,VWS V14.01,2013-08-10 00:34:00,
2013-08-09 19:39:00,65.8,55.0,30.04,NNW,336,4.0,7.0,68,0.00,,OVC070,0.00,VWS V14.01,2013-08-10 00:39:00,
2013-08-09 19:44:00,65.6,55.2,30.04,NNW,334,3.0,7.0,69,0.00,,OVC070,0.00,VWS V14.01,2013-08-10 00:44:00,
2013-08-09 19:45:00,67.3,53.8,30.04,NNW,336,9.0,13.0,62,0.00,,,0.00,VWS V15.00,2013-08-10 00:45:00,
2013-08-09 19:49:00,65.5,55.1,30.05,NNW,334,3.0,7.0,69,0.00,,OVC070,0.00,VWS V14.01,2013-08-10 00:49:00,
2013-08-09 19:54:00,65.3,54.9,30.05,NNW,333,5.0,10.0,69,0.00,,OVC070,0.00,VWS V14.01,2013-08-10 00:54:00,
2013-08-09 19:59:00,65.2,54.4,30.05,NNW,332,0.0,10.0,68,0.00,,OVC070,0.00,VWS V14.01,2013-08-10 00:59:00,
2013-08-09 20:00:00,66.9,54.3,30.04,NW,326,3.0,9.0,64,0.00,,,0.00,VWS V15.00,2013-08-10 01:00:00,
2013-08-09 20:04:00,65.0,54.6,30.06,NNW,331,1.0,4.0,69,0.00,,OVC070,0.00,VWS V14.01,2013-08-10 01:04:00,
2013-08-09 20:09:00,65.0,55.4,30.06,NNW,331,0.0,6.0,71,0.00,,OVC070,0.00,VWS V14.01,2013-08-10 01:09:00,
2013-08-09 20:14:00,64.7,54.3,30.06,NNW,337,9.0,10.0,69,0.00,,OVC070,0.00,VWS V14.01,2013-08-10 01:14:00,
2013-08-09 20:15:00,66.4,55.5,30.04,NW,320,2.0,7.0,68,0.00,,,0.00,VWS V15.00,2013-08-10 01:15:00,
2013-08-09 20:19:00,64.5,53.7,30.06,NNW,343,6.0,6.0,68,0.00,,OVC070,0.00,VWS V14.01,2013-08-10 01:19:00,
2013-08-09 20:24:00,64.3,53.5,30.06,North,351,0.0,11.0,68,0.00,,OVC070,0.00,VWS V14.01,2013-08-10 01:24:00,
2013-08-09 20:29:00,64.3,53.1,30.06,North,357,6.0,11.0,67,0.00,,OVC070,0.00,VWS V14.01,2013-08-10 01:29:00,
2013-08-09 20:30:00,65.8,54.1,30.04,NNW,337,4.0,10.0,66,0.00,,,0.00,VWS V15.00,2013-08-10 01:30:00,
2013-08-09 20:34:00,64.3,53.1,30.06,North,1,4.0,7.0,67,0.00,,OVC070,0.00,VWS V14.01,2013-08-10 01:34:00,
2013-08-09 20:39:00,64.2,53.4,30.06,North,358,7.0,8.0,68,0.00,,OVC070,0.00,VWS V14.01,2013-08-10 01:39:00,
2013-08-09 20:44:00,64.2,53.8,30.06,North,359,3.0,8.0,69,0.00,,OVC070,0.00,VWS V14.01,2013-08-10 01:44:00,
2013-08-09 20:45:00,65.5,55.1,30.05,NNW,334,7.0,7.0,69,0.00,,,0.00,VWS V15.00,2013-08-10 01:45:00,
2013-08-09 20:49:00,64.0,53.2,30.06,North,359,0.0,0.0,68,0.00,,OVC070,0.00,VWS V14.01,2013-08-10 01:49:00,
2013-08-09 20:54:00,63.9,53.9,30.06,North,0,5.0,6.0,70,0.00,,OVC085,0.00,VWS V14.01,2013-08-10 01:54:00,
2013-08-09 20:59:00,63.7,54.1,30.06,North,0,4.0,6.0,71,0.00,,OVC085,0.00,VWS V14.01,2013-08-10 01:59:00,
2013-08-09 21:00:00,65.0,54.6,30.06,NNW,331,4.0,10.0,69,0.00,,,0.00,VWS V15.00,2013-08-10 02:00:00,
2013-08-09 21:04:00,63.5,54.3,30.07,North,0,5.0,5.0,72,0.00,,OVC085,0.00,VWS V14.01,2013-08-10 02:04:00,
2013-08-09 21:09:00,63.4,54.6,30.07,North,0,0.0,5.0,73,0.00,,OVC085,0.00,VWS V14.01,2013-08-10 02:09:00,
2013-08-09 21:15:00,63.2,54.0,30.07,North,0,0.0,5.0,72,0.00,,OVC085,0.00,VWS V14.01,2013-08-10 02:15:00,
2013-08-09 21:20:00,62.9,53.0,30.07,North,0,0.0,0.0,70,0.00,,OVC085,0.00,VWS V14.01,2013-08-10 02:20:00,
2013-08-09 21:25:00,62.9,53.8,30.07,North,0,0.0,0.0,72,0.00,,OVC085,0.00,VWS V14.01,2013-08-10 02:25:00,
2013-08-09 21:30:00,62.6,52.7,30.07,North,0,0.0,0.0,70,0.00,,OVC085,0.00,VWS V14.01,2013-08-10 02:30:00,
2013-08-09 21:35:00,62.6,52.7,30.07,North,0,0.0,0.0,70,0.00,,OVC085,0.00,VWS V14.01,2013-08-10 02:35:00,
2013-08-09 21:40:00,62.4,52.9,30.07,North,0,0.0,0.0,71,0.00,,OVC085,0.00,VWS V14.01,2013-08-10 02:40:00,
2013-08-09 21:45:00,62.4,52.9,30.07,North,0,0.0,0.0,71,0.00,,OVC100,0.00,VWS V14.01,2013-08-10 02:45:00,
2013-08-09 21:50:00,62.3,53.2,30.08,North,0,0.0,0.0,72,0.00,,OVC100,0.00,VWS V14.01,2013-08-10 02:50:00,
2013-08-09 21:55:00,62.3,53.2,30.08,North,0,0.0,0.0,72,0.00,,OVC100,0.00,VWS V14.01,2013-08-10 02:55:00,
2013-08-09 22:00:00,62.1,53.7,30.08,North,0,0.0,0.0,74,0.00,,OVC100,0.00,VWS V14.01,2013-08-10 03:00:00,
2013-08-09 22:05:00,62.0,54.0,30.08,North,0,0.0,0.0,75,0.00,,OVC100,0.00,VWS V14.01,2013-08-10 03:05:00,
2013-08-09 22:10:00,61.8,54.2,30.08,North,0,0.0,0.0,76,0.00,,OVC100,0.00,VWS V14.01,2013-08-10 03:10:00,
2013-08-09 22:15:00,61.6,53.6,30.08,North,0,0.0,0.0,75,0.00,,OVC100,0.00,VWS V14.01,2013-08-10 03:15:00,
2013-08-09 22:20:00,61.6,53.6,30.08,North,0,0.0,0.0,75,0.00,,OVC100,0.00,VWS V14.01,2013-08-10 03:20:00,
2013-08-09 22:25:00,61.5,53.5,30.08,North,0,0.0,0.0,75,0.00,,OVC100,0.00,VWS V14.01,2013-08-10 03:25:00,
2013-08-09 22:30:00,61.3,53.7,30.08,North,0,0.0,0.0,76,0.00,,OVC100,0.00,VWS V14.01,2013-08-10 03:30:00,
2013-08-09 22:35:00,61.3,54.4,30.08,North,0,0.0,0.0,78,0.00,,OVC100,0.00,VWS V14.01,2013-08-10 03:35:00,
2013-08-09 22:40:00,61.3,55.1,30.08,North,0,0.0,0.0,80,0.00,,OVC100,0.00,VWS V14.01,2013-08-10 03:40:00,
2013-08-09 22:45:00,61.2,55.7,30.08,North,0,0.0,0.0,82,0.00,,OVC100,0.00,VWS V14.01,2013-08-10 03:45:00,
2013-08-09 22:50:00,61.0,54.8,30.08,North,0,0.0,0.0,80,0.00,,OVC100,0.00,VWS V14.01,2013-08-10 03:50:00,
2013-08-09 22:55:00,60.9,54.0,30.08,North,0,0.0,0.0,78,0.00,,OVC100,0.00,VWS V14.01,2013-08-10 03:55:00,
2013-08-09 23:00:00,61.0,54.5,30.08,North,0,0.0,0.0,79,0.00,,OVC100,0.00,VWS V14.01,2013-08-10 04:00:00,
2013-08-09 23:01:00,61.0,54.5,30.08,North,0,0.0,0.0,79,0.00,,OVC100,0.00,VWS V14.01,2013-08-10 04:01:00,
2013-08-09 23:03:00,61.0,54.8,30.09,North,0,0.0,0.0,80,0.00,,OVC100,0.00,VWS V14.01,2013-08-10 04:03:00,
2013-08-09 23:04:00,61.0,54.8,30.09,North,0,0.0,0.0,80,0.00,,OVC100,0.00,VWS V14.01,2013-08-10 04:04:00,
2013-08-09 23:05:00,60.9,54.7,30.09,North,0,0.0,0.0,80,0.00,,OVC100,0.00,VWS V14.01,2013-08-10 04:05:00,
2013-08-09 23:10:00,60.7,54.5,30.09,North,0,0.0,0.0,80,0.00,,OVC100,0.00,VWS V14.01,2013-08-10 04:10:00,
2013-08-09 23:14:00,60.7,54.5,30.09,North,0,0.0,0.0,80,0.00,,OVC100,0.00,VWS V14.01,2013-08-10 04:14:00,
2013-08-09 23:15:00,61.6,53.6,30.08,North,0,0.0,0.0,75,0.00,,,0.00,VWS V15.00,2013-08-10 04:15:00,
2013-08-09 23:19:00,60.7,54.5,30.09,North,0,0.0,0.0,80,0.00,,OVC100,0.00,VWS V14.01,2013-08-10 04:19:00,
2013-08-09 23:24:00,60.5,54.0,30.09,North,0,0.0,0.0,79,0.00,,OVC100,0.00,VWS V14.01,2013-08-10 04:24:00,
2013-08-09 23:29:00,60.5,53.6,30.09,North,0,0.0,0.0,78,0.00,,OVC100,0.00,VWS V14.01,2013-08-10 04:29:00,
2013-08-09 23:30:00,61.3,54.4,30.08,North,0,0.0,0.0,78,0.00,,,0.00,VWS V15.00,2013-08-10 04:30:00,
2013-08-09 23:34:00,60.5,54.3,30.09,North,0,0.0,0.0,80,0.00,,OVC100,0.00,VWS V14.01,2013-08-10 04:34:00,
2013-08-09 23:39:00,60.5,54.7,30.09,North,0,0.0,0.0,81,0.00,,OVC100,0.00,VWS V14.01,2013-08-10 04:39:00,
2013-08-09 23:44:00,60.5,55.0,30.09,North,0,0.0,0.0,82,0.00,,OVC100,0.00,VWS V14.01,2013-08-10 04:44:00,
2013-08-09 23:45:00,61.0,55.1,30.08,North,0,0.0,0.0,81,0.00,,,0.00,VWS V15.00,2013-08-10 04:45:00,
2013-08-09 23:50:00,60.5,55.0,30.09,North,0,0.0,0.0,82,0.00,,OVC100,0.00,VWS V14.01,2013-08-10 04:50:00,
2013-08-09 23:55:00,60.4,54.9,30.09,North,0,0.0,0.0,82,0.00,,OVC100,0.00,VWS V14.01,2013-08-10 04:55:00,